This is the latest recevied weather packets stored in our database for station/object LKKV. If no packets are shown the sender has not sent any weather packets the latest 1 day(s).
| Time | Temp. | Humidity | Pressure | Rain* | Wind** | Luminosity | Snow |
|---|---|---|---|---|---|---|---|
| 1778026583 | 8.89° C | 99% | - | - | 0.89 m/s, 210° | - | - |
| 1778025733 | 8.89° C | 100% | 1007 hPa | - | 1.34 m/s, 210° | - | - |
| 1778022983 | 8.89° C | 99% | - | - | 2.24 m/s, 230° | - | - |
| 1778022139 | 8.89° C | 100% | 1007 hPa | - | 2.24 m/s, 230° | - | - |
| 1778019382 | 10° C | 99% | - | - | 2.24 m/s, 230° | - | - |
| 1778018532 | 10° C | 100% | 1007 hPa | - | 2.24 m/s, 230° | - | - |
| 1778015782 | 10° C | 99% | - | - | 0.89 m/s, 160° | - | - |
| 1778014945 | 10° C | 100% | 1007 hPa | - | 0.89 m/s, 0° | - | - |
| 1778012643 | 10° C | 100% | 1007 hPa | - | 1.34 m/s, 60° | - | - |
| 1778012183 | 10° C | 99% | - | - | 2.24 m/s, 50° | - | - |
| 1778011346 | 10° C | 100% | 1007 hPa | - | 1.34 m/s, 50° | - | - |
| 1778008584 | 12.22° C | 81% | - | - | 5.36 m/s, 250° | - | - |
| 1778008384 | 11.11° C | 93% | 1008 hPa | - | 5.36 m/s, 260° | - | - |
| 1778007738 | 12.22° C | 81% | 1007 hPa | - | 4.47 m/s, 260° | - | - |
| 1778007123 | 15° C | 77% | 1007 hPa | - | 3.58 m/s, 0° | - | - |
| 1778005930 | 15° C | 82% | 1005 hPa | - | 4.02 m/s, 50° | - | - |
| 1778005143 | 15° C | 82% | 1005 hPa | - | 4.47 m/s, 40° | - | - |
| 1778004983 | 15° C | 82% | - | - | 4.02 m/s, 50° | - | - |
| 1778004131 | 15° C | 82% | 1005 hPa | - | 4.02 m/s, 50° | - | - |
| 1778002337 | 15° C | 82% | 1005 hPa | - | 3.58 m/s, 60° | - | - |
| 1778001383 | 16.11° C | 77% | - | - | 3.13 m/s, 50° | - | - |
| 1778000532 | 16.11° C | 77% | 1005 hPa | - | 2.68 m/s, 40° | - | - |
| 1777998737 | 16.11° C | 77% | 1006 hPa | - | 3.13 m/s, 30° | - | - |
| 1777997843 | 16.11° C | 77% | - | - | 4.02 m/s, 30° | - | - |
| 1777996932 | 16.11° C | 77% | 1006 hPa | - | 4.02 m/s, 30° | - | - |
* Rain since midnight (hover to see other rain measurements)
** Current wind speed in m/s (hover to see current wind gust speed)